Time;durP1;ratioP1;P1;durP2;ratioP2;P2;SDS_P1;SDS_P2;PMS_P1;PMS_P2;Temp;Humidity;BMP_temperature;BMP_pressure;BME280_temperature;BME280_humidity;BME280_pressure;Samples;Min_cycle;Max_cycle;Signal;HPM_P1;HPM_P2
2022/11/30 00:02:17;;;;;;;;;;;;;;;10.25;76.55;101881.66;5069346;28;19917;-90
2022/11/30 00:04:42;;;;;;;;;;;;;;;10.25;76.77;101886.88;5033522;28;19921;-90
2022/11/30 00:07:08;;;;;;;;;;;;;;;10.23;77.00;101886.75;5036394;28;20396;-89
2022/11/30 00:09:35;;;;;;;;;;;;;;;10.25;76.89;101886.88;5049636;28;20416;-91
2022/11/30 00:12:10;;;;;;;;;;;;;;;10.29;76.89;101894.13;5048571;28;19916;-90
2022/11/30 00:14:36;;;;;;;;;;;;;;;10.24;77.22;101887.66;5036661;28;20280;-90
2022/11/30 00:17:02;;;;;;;;;;;;;;;10.24;76.98;101887.66;5035511;28;19917;-91
2022/11/30 00:19:30;;;;;;;;;;;;;;;10.25;76.92;101895.59;5033001;28;20288;-91
2022/11/30 00:21:55;;;;;;;;;;;;;;;10.21;77.10;101901.38;5051951;28;19927;-90
2022/11/30 00:24:24;;;;;;;;;;;;;;;10.23;76.96;101896.28;5031712;28;19917;-90
2022/11/30 00:26:50;;;;;;;;;;;;;;;10.25;77.09;101899.91;5034579;28;19947;-89
2022/11/30 00:29:16;;;;;;;;;;;;;;;10.23;76.89;101901.50;5060672;28;19939;-90
2022/11/30 00:31:43;;;;;;;;;;;;;;;10.23;76.98;101893.69;5054612;28;19940;-90
2022/11/30 00:34:09;;;;;;;;;;;;;;;10.25;77.04;101894.69;5040666;28;19991;-90
2022/11/30 00:36:38;;;;;;;;;;;;;;;10.23;76.80;101897.19;5032024;28;19975;-90
2022/11/30 00:39:13;;;;;;;;;;;;;;;10.22;76.84;101897.97;5049032;28;19923;-90
2022/11/30 00:41:48;;;;;;;;;;;;;;;10.23;77.03;101904.13;5038139;28;19925;-91
2022/11/30 00:44:15;;;;;;;;;;;;;;;10.23;76.99;101904.13;5034939;28;19917;-90
2022/11/30 00:46:43;;;;;;;;;;;;;;;10.22;76.82;101897.97;5035153;28;19916;-92
2022/11/30 00:49:13;;;;;;;;;;;;;;;10.25;76.72;101902.53;5048934;28;19952;-91
2022/11/30 00:51:39;;;;;;;;;;;;;;;10.27;76.18;101893.09;5031783;28;19960;-90
2022/11/30 00:54:04;;;;;;;;;;;;;;;10.28;76.46;101897.50;5031344;28;20326;-90
2022/11/30 00:56:30;;;;;;;;;;;;;;;10.25;76.22;101879.94;5027118;28;20003;-90
2022/11/30 00:58:55;;;;;;;;;;;;;;;10.33;76.00;101872.72;5043011;28;20291;-90
2022/11/30 01:01:21;;;;;;;;;;;;;;;10.26;76.49;101865.16;5057294;28;20359;-90
2022/11/30 01:03:49;;;;;;;;;;;;;;;10.25;76.82;101865.97;5042079;28;20382;-90
2022/11/30 01:06:18;;;;;;;;;;;;;;;10.28;76.64;101874.91;5065570;28;20007;-90
2022/11/30 01:08:46;;;;;;;;;;;;;;;10.26;76.46;101868.69;5044938;28;19951;-90
2022/11/30 01:11:17;;;;;;;;;;;;;;;10.25;76.61;101872.09;5051562;28;19916;-88
2022/11/30 01:13:49;;;;;;;;;;;;;;;10.26;76.29;101879.13;5060762;28;19946;-90
2022/11/30 01:16:28;;;;;;;;;;;;;;;10.26;76.77;101875.59;5049184;28;19955;-90
2022/11/30 01:18:57;;;;;;;;;;;;;;;10.25;76.44;101869.50;5050855;28;20617;-91
2022/11/30 01:21:23;;;;;;;;;;;;;;;10.24;76.90;101875.50;5055397;28;19942;-88
2022/11/30 01:23:50;;;;;;;;;;;;;;;10.27;76.54;101875.72;5030220;28;19921;-89
2022/11/30 01:26:16;;;;;;;;;;;;;;;10.25;76.67;101876.44;5034930;28;19951;-90
2022/11/30 01:28:43;;;;;;;;;;;;;;;10.27;76.53;101875.72;5039802;28;19917;-90
2022/11/30 01:31:11;;;;;;;;;;;;;;;10.25;76.32;101877.31;5043901;28;20302;-90
2022/11/30 01:33:36;;;;;;;;;;;;;;;10.25;76.65;101879.03;5034797;28;20011;-91
2022/11/30 01:36:06;;;;;;;;;;;;;;;10.27;76.35;101875.72;5034034;28;20425;-90
2022/11/30 01:38:33;;;;;;;;;;;;;;;10.27;76.58;101878.34;5034154;28;19966;-90
2022/11/30 01:41:01;;;;;;;;;;;;;;;10.28;76.05;101874.03;5042572;28;19924;-90
2022/11/30 01:43:42;;;;;;;;;;;;;;;10.28;76.01;101881.84;5035634;28;19920;-89
2022/11/30 01:46:23;;;;;;;;;;;;;;;10.23;76.49;101867.56;5054127;28;20386;-89
2022/11/30 01:48:53;;;;;;;;;;;;;;;10.22;76.63;101869.25;5073264;28;19916;-90
2022/11/30 01:51:18;;;;;;;;;;;;;;;10.24;76.45;101871.97;5075010;28;19923;-90
2022/11/30 01:53:49;;;;;;;;;;;;;;;10.26;76.19;101875.59;5029585;28;19913;-89
2022/11/30 01:56:17;;;;;;;;;;;;;;;10.26;75.94;101875.59;5074429;28;19970;-90
2022/11/30 01:58:42;;;;;;;;;;;;;;;10.29;76.07;101873.25;5041555;28;19919;-90
2022/11/30 02:01:09;;;;;;;;;;;;;;;10.32;75.74;101865.66;5045751;28;20003;-89
2022/11/30 02:06:26;;;;;;;;;;;;;;;10.33;75.42;101862.25;5044722;28;19921;-90
2022/11/30 02:08:51;;;;;;;;;;;;;;;10.33;75.54;101876.22;5054544;28;20008;-90
2022/11/30 02:11:17;;;;;;;;;;;;;;;10.38;75.36;101871.31;5044187;28;20378;-90
2022/11/30 02:13:46;;;;;;;;;;;;;;;10.33;75.82;101883.16;5045304;28;19935;-90
2022/11/30 02:16:18;;;;;;;;;;;;;;;10.35;75.37;101886.75;5052058;28;19939;-91
2022/11/30 02:18:46;;;;;;;;;;;;;;;10.35;75.21;101887.69;5054195;28;20375;-91
2022/11/30 02:21:19;;;;;;;;;;;;;;;10.36;75.18;101885.97;5051011;28;20457;-91
2022/11/30 02:23:51;;;;;;;;;;;;;;;10.35;75.37;101884.13;5012402;28;19921;-90
2022/11/30 02:26:44;;;;;;;;;;;;;;;10.36;75.39;101885.97;5032060;28;20318;-91
2022/11/30 02:29:11;;;;;;;;;;;;;;;10.33;75.46;101881.44;5026415;28;19933;-90
2022/11/30 02:31:43;;;;;;;;;;;;;;;10.38;75.31;101877.44;5036038;28;20322;-90
2022/11/30 02:34:15;;;;;;;;;;;;;;;10.36;75.45;101871.19;5021088;28;19944;-90
2022/11/30 02:36:41;;;;;;;;;;;;;;;10.37;75.45;101886.09;5014804;28;19921;-91
2022/11/30 02:39:08;;;;;;;;;;;;;;;10.32;75.38;101887.44;5014105;28;20505;-90
2022/11/30 02:41:36;;;;;;;;;;;;;;;10.33;75.48;101889.28;5016453;28;20287;-90
2022/11/30 02:44:03;;;;;;;;;;;;;;;10.34;75.19;101880.63;5017505;28;19929;-91
2022/11/30 02:46:53;;;;;;;;;;;;;;;10.32;75.65;101887.44;5035304;28;19964;-90
2022/11/30 02:49:27;;;;;;;;;;;;;;;10.34;75.16;101887.56;5031892;28;19974;-90
2022/11/30 02:51:53;;;;;;;;;;;;;;;10.35;75.15;101891.97;5037954;28;20398;-90
2022/11/30 02:54:21;;;;;;;;;;;;;;;10.35;75.13;101889.34;5017449;28;19917;-91
2022/11/30 02:56:48;;;;;;;;;;;;;;;10.35;75.40;101897.19;5046532;28;19917;-90
2022/11/30 02:59:14;;;;;;;;;;;;;;;10.34;75.20;101892.78;5021595;28;19921;-89
2022/11/30 03:01:41;;;;;;;;;;;;;;;10.33;75.34;101888.38;5031976;28;20364;-89
2022/11/30 03:04:07;;;;;;;;;;;;;;;10.37;75.23;101895.59;5036377;28;20279;-90
2022/11/30 03:06:33;;;;;;;;;;;;;;;10.42;74.77;101891.63;5024382;28;19948;-90
2022/11/30 03:08:58;;;;;;;;;;;;;;;10.37;74.93;101888.69;5015038;28;19926;-89
2022/11/30 03:11:24;;;;;;;;;;;;;;;10.38;75.24;101879.16;5028285;28;20311;-90
2022/11/30 03:13:51;;;;;;;;;;;;;;;10.39;75.10;101875.72;5053145;28;19921;-90
2022/11/30 03:16:19;;;;;;;;;;;;;;;10.37;74.88;101869.50;5017419;28;19917;-90
2022/11/30 03:18:45;;;;;;;;;;;;;;;10.32;75.33;101876.09;5035309;28;20314;-90
2022/11/30 03:21:11;;;;;;;;;;;;;;;10.33;74.97;101878.81;5034516;28;19921;-90
2022/11/30 03:23:36;;;;;;;;;;;;;;;10.29;75.45;101876.78;5052148;28;20437;-89
2022/11/30 03:26:08;;;;;;;;;;;;;;;10.38;74.84;101889.59;5052378;28;19935;-90
2022/11/30 03:28:36;;;;;;;;;;;;;;;10.35;74.89;101884.13;5055264;28;19917;-90
2022/11/30 03:31:01;;;;;;;;;;;;;;;10.35;75.04;101872.00;5049878;28;19947;-89
2022/11/30 03:33:31;;;;;;;;;;;;;;;10.34;75.38;101875.41;5036320;28;20406;-90
2022/11/30 03:36:00;;;;;;;;;;;;;;;10.36;74.92;101883.34;5030064;28;19946;-90
2022/11/30 03:38:27;;;;;;;;;;;;;;;10.38;75.05;101879.16;5058833;28;19921;-90
2022/11/30 03:41:22;;;;;;;;;;;;;;;10.37;74.87;101880.88;5043713;28;19968;-91
2022/11/30 03:43:51;;;;;;;;;;;;;;;10.32;75.26;101863.03;5031578;28;19924;-91
2022/11/30 03:46:18;;;;;;;;;;;;;;;10.32;75.29;101853.50;5040552;28;19971;-91
2022/11/30 03:48:53;;;;;;;;;;;;;;;10.32;75.22;101860.44;5046317;28;20406;-91
2022/11/30 03:51:19;;;;;;;;;;;;;;;10.33;75.04;101860.56;5062492;28;20128;-90
2022/11/30 03:53:45;;;;;;;;;;;;;;;10.33;75.31;101855.31;5037827;28;19913;-90
2022/11/30 03:56:11;;;;;;;;;;;;;;;10.32;75.17;101855.22;5045987;28;19925;-90
2022/11/30 03:58:37;;;;;;;;;;;;;;;10.34;75.18;101861.44;5041606;28;19962;-90
2022/11/30 04:01:08;;;;;;;;;;;;;;;10.34;74.98;101864.06;5044672;28;20378;-91
2022/11/30 04:03:37;;;;;;;;;;;;;;;10.36;75.07;101865.97;5039996;28;19924;-89
2022/11/30 04:06:04;;;;;;;;;;;;;;;10.39;74.70;101871.44;5049454;28;19927;-91
2022/11/30 04:08:30;;;;;;;;;;;;;;;10.33;75.08;101868.38;5031025;28;19925;-88
2022/11/30 04:10:58;;;;;;;;;;;;;;;10.37;74.78;101859.97;5050760;28;19921;-90
2022/11/30 04:13:30;;;;;;;;;;;;;;;10.35;75.15;101863.25;5044602;28;19974;-90
2022/11/30 04:15:56;;;;;;;;;;;;;;;10.27;75.25;101860.06;5038241;28;19917;-90
2022/11/30 04:18:24;;;;;;;;;;;;;;;10.28;75.15;101860.97;5035447;28;20309;-90
2022/11/30 04:20:53;;;;;;;;;;;;;;;10.29;75.16;101853.28;5052183;28;19946;-90
2022/11/30 04:23:20;;;;;;;;;;;;;;;10.33;75.09;101850.09;5042396;28;20382;-90
2022/11/30 04:25:55;;;;;;;;;;;;;;;10.33;75.13;101844.88;5022669;28;19927;-91
2022/11/30 04:28:22;;;;;;;;;;;;;;;10.33;75.32;101844.88;5045369;28;20393;-90
2022/11/30 04:30:47;;;;;;;;;;;;;;;10.30;75.42;101841.13;5035015;28;19913;-90
2022/11/30 04:33:21;;;;;;;;;;;;;;;10.28;75.18;101840.09;5037947;28;19990;-90
2022/11/30 04:35:50;;;;;;;;;;;;;;;10.31;75.08;101850.81;5034184;28;19921;-91
2022/11/30 04:38:17;;;;;;;;;;;;;;;10.26;75.23;101845.19;5033588;28;19923;-91
2022/11/30 04:40:48;;;;;;;;;;;;;;;10.30;75.18;101854.19;5035524;28;19921;-91
2022/11/30 04:43:26;;;;;;;;;;;;;;;10.28;75.39;101863.56;5051496;28;20382;-90
2022/11/30 04:45:55;;;;;;;;;;;;;;;10.28;75.23;101856.66;5035244;28;19921;-91
2022/11/30 04:48:27;;;;;;;;;;;;;;;10.28;75.43;101867.09;5048590;28;19912;-90
2022/11/30 04:50:58;;;;;;;;;;;;;;;10.26;75.47;101867.78;5033578;28;20007;-91
2022/11/30 04:53:28;;;;;;;;;;;;;;;10.25;75.17;101879.94;5035091;28;19916;-90
2022/11/30 04:55:59;;;;;;;;;;;;;;;10.28;74.91;101885.38;5051801;28;19912;-91
2022/11/30 04:58:39;;;;;;;;;;;;;;;10.26;75.25;101879.13;5047566;28;19922;-92
2022/11/30 05:01:15;;;;;;;;;;;;;;;10.35;74.80;101891.97;5044767;28;20370;-91
2022/11/30 05:03:44;;;;;;;;;;;;;;;10.33;74.77;101881.44;5041152;28;19967;-91
2022/11/30 05:06:14;;;;;;;;;;;;;;;10.25;75.25;101894.69;5044487;28;20455;-91
2022/11/30 05:08:44;;;;;;;;;;;;;;;10.23;75.61;101891.97;5039746;28;19925;-91
2022/11/30 05:11:12;;;;;;;;;;;;;;;10.25;75.18;101887.75;5021265;28;20336;-91
2022/11/30 05:13:46;;;;;;;;;;;;;;;10.28;75.17;101894.91;5046639;28;19967;-92
2022/11/30 05:16:15;;;;;;;;;;;;;;;10.34;74.98;101890.16;5047672;28;19917;-90
2022/11/30 05:18:40;;;;;;;;;;;;;;;10.29;75.02;101884.63;5028377;28;19925;-88
2022/11/30 05:21:23;;;;;;;;;;;;;;;10.28;75.14;101894.91;5036661;28;20016;-90
2022/11/30 05:26:49;;;;;;;;;;;;;;;10.29;74.95;101897.69;5041977;28;22378;-90
2022/11/30 05:29:19;;;;;;;;;;;;;;;10.29;75.26;101901.97;5036994;28;19999;-90
2022/11/30 05:31:50;;;;;;;;;;;;;;;10.27;75.06;101899.22;5034838;28;19921;-90
2022/11/30 05:34:16;;;;;;;;;;;;;;;10.32;75.14;101896.97;5014882;28;19921;-89
2022/11/30 05:36:41;;;;;;;;;;;;;;;10.32;75.00;101904.81;5023963;28;19979;-90
2022/11/30 05:39:07;;;;;;;;;;;;;;;10.29;74.88;101907.19;5031754;28;19952;-89
2022/11/30 05:41:37;;;;;;;;;;;;;;;10.28;75.07;101907.97;5034184;28;19921;-91
2022/11/30 05:44:08;;;;;;;;;;;;;;;10.30;74.78;101907.31;5021245;28;19921;-89
2022/11/30 05:46:38;;;;;;;;;;;;;;;10.28;75.06;101906.25;5044143;28;20371;-88
2022/11/30 05:49:05;;;;;;;;;;;;;;;10.27;75.07;101909.66;5028374;28;19921;-89
2022/11/30 05:51:33;;;;;;;;;;;;;;;10.29;75.09;101902.91;5045059;28;19925;-90
2022/11/30 05:54:02;;;;;;;;;;;;;;;10.35;74.91;101899.81;5030419;28;19917;-88
2022/11/30 05:56:27;;;;;;;;;;;;;;;10.31;75.02;101913.47;5029997;28;19921;-90
2022/11/30 05:58:54;;;;;;;;;;;;;;;10.31;75.25;101923.91;5016361;28;19921;-89
2022/11/30 06:01:21;;;;;;;;;;;;;;;10.27;74.71;101911.38;5042351;28;19917;-90
2022/11/30 06:03:49;;;;;;;;;;;;;;;10.32;74.83;101915.25;5015448;28;19978;-89
2022/11/30 06:06:19;;;;;;;;;;;;;;;10.29;74.84;101923.78;5039007;28;20035;-89
2022/11/30 06:08:46;;;;;;;;;;;;;;;10.31;74.66;101931.72;5016430;28;19913;-89
2022/11/30 06:11:15;;;;;;;;;;;;;;;10.36;74.71;101927.75;5016248;28;19917;-89
2022/11/30 06:13:42;;;;;;;;;;;;;;;10.41;74.66;101928.97;5015997;28;19913;-90
2022/11/30 06:16:17;;;;;;;;;;;;;;;10.37;74.72;101920.03;5043555;28;19971;-91
2022/11/30 06:18:45;;;;;;;;;;;;;;;10.40;74.54;101935.00;5058524;28;19928;-89
2022/11/30 06:21:14;;;;;;;;;;;;;;;10.45;74.04;101932.72;5037140;28;19925;-89
2022/11/30 06:23:39;;;;;;;;;;;;;;;10.45;74.46;101932.72;5047838;28;20375;-88
2022/11/30 06:26:11;;;;;;;;;;;;;;;10.44;74.48;101921.38;5036426;28;19928;-88
2022/11/30 06:28:38;;;;;;;;;;;;;;;10.44;74.48;101925.72;5031177;28;19922;-87
2022/11/30 06:31:04;;;;;;;;;;;;;;;10.39;74.40;101920.13;5030595;28;19922;-90
2022/11/30 06:33:30;;;;;;;;;;;;;;;10.39;74.64;101933.19;5039668;28;19928;-88
2022/11/30 06:35:55;;;;;;;;;;;;;;;10.37;74.59;101930.47;5037056;28;19920;-89
2022/11/30 06:38:21;;;;;;;;;;;;;;;10.42;74.38;101933.41;5046358;28;19947;-88
2022/11/30 06:40:48;;;;;;;;;;;;;;;10.38;74.58;101936.59;5041233;28;19921;-89
2022/11/30 06:43:14;;;;;;;;;;;;;;;10.39;74.40;101930.56;5034470;28;19925;-89
2022/11/30 06:45:42;;;;;;;;;;;;;;;10.39;74.21;101938.41;5043157;28;19925;-88
2022/11/30 06:48:08;;;;;;;;;;;;;;;10.36;74.50;101936.47;5053204;28;19964;-88
2022/11/30 06:50:33;;;;;;;;;;;;;;;10.42;74.13;101946.47;5051369;28;19921;-88
2022/11/30 06:52:59;;;;;;;;;;;;;;;10.41;74.12;101928.97;5052992;28;19932;-88
2022/11/30 06:55:25;;;;;;;;;;;;;;;10.43;74.34;101937.84;5052527;28;20383;-89
2022/11/30 06:57:56;;;;;;;;;;;;;;;10.46;74.20;101931.94;5037105;28;19921;-91
2022/11/30 07:00:21;;;;;;;;;;;;;;;10.47;73.95;101936.38;5035573;28;19920;-90
2022/11/30 07:02:52;;;;;;;;;;;;;;;10.40;74.31;101921.97;5038363;28;20306;-90
2022/11/30 07:05:18;;;;;;;;;;;;;;;10.42;74.27;101927.28;5053114;28;19916;-90
2022/11/30 07:07:43;;;;;;;;;;;;;;;10.43;74.03;101926.50;5056263;28;20034;-90
2022/11/30 07:10:10;;;;;;;;;;;;;;;10.43;73.84;101934.31;5053184;28;19968;-90
2022/11/30 07:12:44;;;;;;;;;;;;;;;10.43;74.10;101939.53;5055885;28;19912;-90
2022/11/30 07:15:09;;;;;;;;;;;;;;;10.43;73.95;101923.88;5027595;28;19921;-88
2022/11/30 07:17:35;;;;;;;;;;;;;;;10.45;73.95;101946.69;5051615;28;19935;-87
2022/11/30 07:20:00;;;;;;;;;;;;;;;10.43;73.94;101945.66;5053924;28;20038;-87
2022/11/30 07:22:26;;;;;;;;;;;;;;;10.44;74.09;101938.75;5056553;28;19921;-86
2022/11/30 07:27:35;;;;;;;;;;;;;;;10.43;74.29;101931.72;5052836;28;19950;-88
2022/11/30 07:30:01;;;;;;;;;;;;;;;10.47;74.01;101952.03;5053775;28;20382;-88
2022/11/30 07:32:26;;;;;;;;;;;;;;;10.40;74.00;101932.41;5053599;28;19924;-87
2022/11/30 07:34:51;;;;;;;;;;;;;;;10.43;74.01;101942.16;5059659;28;20014;-82
2022/11/30 07:37:22;;;;;;;;;;;;;;;10.45;74.06;101949.31;5058764;28;20412;-91
2022/11/30 07:40:20;;;;;;;;;;;;;;;10.45;73.94;101940.56;5047124;28;20368;-95
2022/11/30 07:43:01;;;;;;;;;;;;;;;10.44;74.11;101938.75;5049993;28;19916;-94
2022/11/30 07:45:27;;;;;;;;;;;;;;;10.44;74.01;101941.38;5056369;28;20357;-89
2022/11/30 07:48:22;;;;;;;;;;;;;;;10.46;73.68;101938.06;5035623;28;19939;-90
2022/11/30 07:51:15;;;;;;;;;;;;;;;10.43;74.02;101947.38;5054223;28;19921;-93
2022/11/30 07:53:56;;;;;;;;;;;;;;;10.46;73.95;101956.34;5050302;28;19923;-91
2022/11/30 07:56:34;;;;;;;;;;;;;;;10.41;74.15;101947.25;5048226;28;19958;-91
2022/11/30 07:59:08;;;;;;;;;;;;;;;10.40;73.85;101950.69;5060573;28;20430;-89
2022/11/30 08:01:36;;;;;;;;;;;;;;;10.42;73.80;101948.19;5035776;28;19924;-90
2022/11/30 08:04:02;;;;;;;;;;;;;;;10.42;74.21;101951.69;5052195;28;20412;-89
2022/11/30 08:06:32;;;;;;;;;;;;;;;10.45;73.92;101957.13;5054696;28;20023;-89
2022/11/30 08:08:58;;;;;;;;;;;;;;;10.45;73.79;101954.53;5056707;28;19970;-90
2022/11/30 08:11:25;;;;;;;;;;;;;;;10.49;73.51;101967.00;5052902;28;20015;-89
2022/11/30 08:13:54;;;;;;;;;;;;;;;10.49;73.49;101961.78;5059905;28;19921;-89
2022/11/30 08:16:21;;;;;;;;;;;;;;;10.46;74.03;101947.63;5033867;28;19936;-89
2022/11/30 08:18:47;;;;;;;;;;;;;;;10.45;73.99;101961.44;5053507;28;20278;-89
2022/11/30 08:21:15;;;;;;;;;;;;;;;10.45;73.73;101967.56;5052330;28;19921;-89
2022/11/30 08:23:42;;;;;;;;;;;;;;;10.48;73.84;101956.47;5034005;28;19928;-88
2022/11/30 08:26:07;;;;;;;;;;;;;;;10.49;73.73;101969.63;5046644;28;19947;-87
2022/11/30 08:28:36;;;;;;;;;;;;;;;10.44;73.69;101957.94;5045279;28;20012;-86
2022/11/30 08:31:02;;;;;;;;;;;;;;;10.41;74.03;101968.16;5054639;28;19963;-86
2022/11/30 08:33:29;;;;;;;;;;;;;;;10.45;73.79;101964.06;5054111;28;20033;-86
2022/11/30 08:35:54;;;;;;;;;;;;;;;10.45;73.70;101964.97;5037001;28;19974;-87
2022/11/30 08:38:19;;;;;;;;;;;;;;;10.48;73.92;101978.28;5055046;28;19925;-87
2022/11/30 08:40:45;;;;;;;;;;;;;;;10.47;73.98;101946.81;5049694;28;19930;-88
2022/11/30 08:43:10;;;;;;;;;;;;;;;10.47;73.60;101959.88;5049945;28;20398;-87
2022/11/30 08:45:37;;;;;;;;;;;;;;;10.47;73.75;101949.41;5052978;28;20430;-87
2022/11/30 08:48:03;;;;;;;;;;;;;;;10.41;74.07;101957.69;5033515;28;20003;-87
2022/11/30 08:50:28;;;;;;;;;;;;;;;10.41;73.90;101956.81;5064546;28;19954;-89
2022/11/30 08:52:55;;;;;;;;;;;;;;;10.32;73.93;101952.72;5031974;28;19920;-89
2022/11/30 08:55:20;;;;;;;;;;;;;;;10.34;74.20;101935.47;5046880;28;20370;-89
2022/11/30 08:57:47;;;;;;;;;;;;;;;10.35;74.11;101928.53;5061004;28;19966;-89
2022/11/30 09:00:14;;;;;;;;;;;;;;;10.34;74.08;101940.69;5034470;28;20323;-89
2022/11/30 09:02:41;;;;;;;;;;;;;;;10.34;74.47;101945.91;5052130;28;19924;-87
2022/11/30 09:05:06;;;;;;;;;;;;;;;10.37;74.07;101933.09;5037812;28;19970;-87
2022/11/30 09:07:32;;;;;;;;;;;;;;;10.38;74.00;101923.53;5052798;28;20352;-88
2022/11/30 09:09:58;;;;;;;;;;;;;;;10.36;74.08;101925.13;5054780;28;19923;-89
2022/11/30 09:12:25;;;;;;;;;;;;;;;10.37;74.33;101929.53;5050031;28;19921;-89
2022/11/30 09:14:52;;;;;;;;;;;;;;;10.45;74.12;101925.78;5055687;28;20066;-89
2022/11/30 09:17:17;;;;;;;;;;;;;;;10.42;74.06;101928.19;5041917;28;19978;-88
2022/11/30 09:19:43;;;;;;;;;;;;;;;10.41;74.43;101942.03;5048426;28;20429;-90
2022/11/30 09:22:08;;;;;;;;;;;;;;;10.39;74.47;101928.88;5051240;28;20314;-90
2022/11/30 09:24:37;;;;;;;;;;;;;;;10.42;74.59;101930.81;5051300;28;19920;-90
2022/11/30 09:27:02;;;;;;;;;;;;;;;10.43;74.23;101924.78;5054156;28;19917;-89
2022/11/30 09:29:29;;;;;;;;;;;;;;;10.46;74.52;101942.41;5036732;28;19916;-88
2022/11/30 09:31:55;;;;;;;;;;;;;;;10.44;74.21;101942.28;5036838;28;20010;-91
2022/11/30 09:34:21;;;;;;;;;;;;;;;10.46;74.44;101932.84;5036372;28;19925;-91
2022/11/30 09:37:02;;;;;;;;;;;;;;;10.50;74.54;101941.84;5051322;28;19917;-92
2022/11/30 09:39:32;;;;;;;;;;;;;;;10.48;74.36;101923.44;5051143;28;20325;-91
2022/11/30 09:42:18;;;;;;;;;;;;;;;10.51;74.53;101934.09;5057515;28;19916;-90
2022/11/30 09:44:47;;;;;;;;;;;;;;;10.51;74.92;101927.97;5039937;28;19951;-91
2022/11/30 09:47:15;;;;;;;;;;;;;;;10.51;74.90;101941.00;5057799;28;19920;-91
2022/11/30 09:49:44;;;;;;;;;;;;;;;10.52;74.62;101928.06;5051694;28;20405;-91
2022/11/30 09:52:23;;;;;;;;;;;;;;;10.55;74.67;101924.78;5047504;28;19920;-89
2022/11/30 09:54:50;;;;;;;;;;;;;;;10.54;74.92;101928.16;5053958;28;20381;-89
2022/11/30 09:57:29;;;;;;;;;;;;;;;10.50;75.11;101916.59;5050931;28;20313;-90
2022/11/30 09:59:59;;;;;;;;;;;;;;;10.53;74.86;101919.44;5061451;28;19913;-90
2022/11/30 10:02:30;;;;;;;;;;;;;;;10.55;75.39;101923.06;5057509;28;19955;-91
2022/11/30 10:04:58;;;;;;;;;;;;;;;10.56;75.31;101929.19;5035480;28;19924;-90
2022/11/30 10:07:28;;;;;;;;;;;;;;;10.61;74.91;101921.72;5020652;28;20008;-90
2022/11/30 10:10:10;;;;;;;;;;;;;;;10.61;75.11;101925.22;5054933;28;20011;-89
2022/11/30 10:12:38;;;;;;;;;;;;;;;10.59;75.04;101917.25;5055025;28;20390;-90
2022/11/30 10:15:06;;;;;;;;;;;;;;;10.66;75.28;101926.44;5065492;28;20408;-90
2022/11/30 10:17:32;;;;;;;;;;;;;;;10.68;75.56;101909.19;5057504;28;20011;-89
2022/11/30 10:20:01;;;;;;;;;;;;;;;10.72;75.36;101907.69;5058709;28;19917;-88
2022/11/30 10:22:30;;;;;;;;;;;;;;;10.72;75.60;101889.41;5056957;28;20387;-91
2022/11/30 10:25:15;;;;;;;;;;;;;;;10.72;75.80;101907.69;5037737;28;20402;-91
2022/11/30 10:28:03;;;;;;;;;;;;;;;10.72;76.14;101916.44;5052882;28;19921;-91
2022/11/30 10:30:32;;;;;;;;;;;;;;;10.74;75.72;101921.78;5056663;28;20386;-89
2022/11/30 10:33:00;;;;;;;;;;;;;;;10.74;76.17;101925.28;5056338;28;19955;-89
2022/11/30 10:35:32;;;;;;;;;;;;;;;10.76;76.74;101920.19;5039864;28;19917;-90
2022/11/30 10:37:59;;;;;;;;;;;;;;;10.80;76.30;101920.50;5053800;28;19923;-91
2022/11/30 10:40:59;;;;;;;;;;;;;;;10.85;77.44;101922.56;5056535;28;19924;-90
2022/11/30 10:43:38;;;;;;;;;;;;;;;10.82;76.90;101898.84;5031907;28;20430;-90
2022/11/30 10:46:04;;;;;;;;;;;;;;;10.76;77.24;101894.06;5036138;28;19917;-89
2022/11/30 10:48:44;;;;;;;;;;;;;;;10.77;77.11;101904.63;5045486;28;19912;-90
2022/11/30 10:51:13;;;;;;;;;;;;;;;10.80;77.58;101898.72;5045851;28;19924;-90
2022/11/30 10:53:39;;;;;;;;;;;;;;;10.77;77.37;101908.94;5055687;28;19999;-90
2022/11/30 10:56:08;;;;;;;;;;;;;;;10.78;77.75;101895.97;5060838;28;19998;-89
2022/11/30 10:58:53;;;;;;;;;;;;;;;10.81;77.98;101903.13;5056560;28;19920;-89
2022/11/30 11:01:33;;;;;;;;;;;;;;;10.79;79.46;101881.19;5050826;28;19917;-89
2022/11/30 11:04:18;;;;;;;;;;;;;;;10.71;78.75;101892.81;5061265;28;20332;-89
2022/11/30 11:06:48;;;;;;;;;;;;;;;10.78;79.20;101885.53;5067595;28;19916;-89
2022/11/30 11:09:30;;;;;;;;;;;;;;;10.83;79.09;101885.84;5036644;28;19917;-90
2022/11/30 11:12:00;;;;;;;;;;;;;;;10.84;79.38;101885.06;5044921;28;19916;-91
2022/11/30 11:14:26;;;;;;;;;;;;;;;10.79;78.83;101874.28;5070193;28;20000;-91
2022/11/30 11:17:00;;;;;;;;;;;;;;;10.82;79.54;101873.59;5044063;28;19913;-90
2022/11/30 11:19:41;;;;;;;;;;;;;;;10.83;79.68;101872.78;5041325;28;19959;-91
2022/11/30 11:22:16;;;;;;;;;;;;;;;10.91;78.43;101865.50;5038603;28;20009;-90
2022/11/30 11:24:52;;;;;;;;;;;;;;;10.89;79.76;101873.22;5051474;28;19921;-89
2022/11/30 11:27:26;;;;;;;;;;;;;;;10.95;79.31;101891.94;5053214;28;19917;-89
2022/11/30 11:30:06;;;;;;;;;;;;;;;10.93;79.57;101887.41;5053683;28;19920;-91
2022/11/30 11:32:34;;;;;;;;;;;;;;;10.92;79.37;101889.13;5053273;28;19982;-90
2022/11/30 11:34:59;;;;;;;;;;;;;;;10.99;79.88;101903.53;5053293;28;19917;-90
2022/11/30 11:37:37;;;;;;;;;;;;;;;10.97;79.14;101903.41;5055422;28;20338;-91
2022/11/30 11:40:04;;;;;;;;;;;;;;;10.96;80.84;101898.06;5032772;28;20387;-90
2022/11/30 11:42:35;;;;;;;;;;;;;;;11.02;79.09;101900.22;5047163;28;19917;-89
2022/11/30 11:45:04;;;;;;;;;;;;;;;11.00;79.02;101911.47;5052861;28;19924;-89
2022/11/30 11:47:39;;;;;;;;;;;;;;;11.03;80.18;101918.63;5042903;28;20374;-90
2022/11/30 11:50:12;;;;;;;;;;;;;;;11.05;79.50;101922.28;5056264;28;19916;-90
2022/11/30 11:52:45;;;;;;;;;;;;;;;10.98;79.99;101925.22;5046599;28;19917;-90
2022/11/30 11:55:15;;;;;;;;;;;;;;;11.06;79.17;101937.13;5042751;28;20015;-90
2022/11/30 11:57:44;;;;;;;;;;;;;;;11.07;79.34;101938.03;5045763;28;19920;-90
2022/11/30 12:00:14;;;;;;;;;;;;;;;11.14;79.16;101933.34;5055937;28;19916;-90
2022/11/30 12:05:50;;;;;;;;;;;;;;;11.20;78.96;101945.97;5053962;28;19974;-91
2022/11/30 12:08:15;;;;;;;;;;;;;;;11.16;78.95;101936.09;5057782;28;19940;-90
2022/11/30 12:10:42;;;;;;;;;;;;;;;11.26;78.89;101940.25;5056753;28;20340;-90
2022/11/30 12:13:11;;;;;;;;;;;;;;;11.17;79.12;101941.41;5056264;28;20660;-90
2022/11/30 12:15:41;;;;;;;;;;;;;;;11.11;79.54;101932.22;5054068;28;19967;-90
2022/11/30 12:18:26;;;;;;;;;;;;;;;11.11;80.39;101940.06;5055221;28;20441;-91
2022/11/30 12:21:06;;;;;;;;;;;;;;;11.05;79.68;101947.47;5039537;28;19916;-90
2022/11/30 12:23:37;;;;;;;;;;;;;;;11.07;80.30;101943.25;5052038;28;20008;-91
2022/11/30 12:26:23;;;;;;;;;;;;;;;11.04;80.58;101935.22;5052303;28;19960;-91
2022/11/30 12:28:53;;;;;;;;;;;;;;;11.08;80.93;101943.38;5052447;28;19917;-91
2022/11/30 12:31:21;;;;;;;;;;;;;;;11.09;79.80;101940.00;5052428;28;20402;-91
2022/11/30 12:33:57;;;;;;;;;;;;;;;11.05;80.70;101945.78;5052297;28;20003;-90
2022/11/30 12:36:22;;;;;;;;;;;;;;;11.08;80.94;101947.72;5035633;28;19917;-89
2022/11/30 12:38:49;;;;;;;;;;;;;;;11.12;80.03;101960.19;5044323;28;20024;-90
2022/11/30 12:41:48;;;;;;;;;;;;;;;11.19;79.65;101947.66;5029858;28;19927;-91
2022/11/30 12:44:42;;;;;;;;;;;;;;;11.16;80.15;101949.16;5050868;28;19921;-88
2022/11/30 12:47:19;;;;;;;;;;;;;;;11.22;79.78;101952.22;5054790;28;20438;-89
2022/11/30 12:49:51;;;;;;;;;;;;;;;11.21;79.86;101945.16;5055938;28;20004;-89
2022/11/30 12:52:17;;;;;;;;;;;;;;;11.19;79.94;101939.81;5058182;28;19920;-88
2022/11/30 12:55:01;;;;;;;;;;;;;;;11.19;80.46;101949.38;5054538;28;19920;-93
2022/11/30 12:57:35;;;;;;;;;;;;;;;11.20;79.94;101956.44;5039633;28;20313;-90
2022/11/30 13:00:22;;;;;;;;;;;;;;;11.23;80.41;101959.25;5048175;28;20302;-92
2022/11/30 13:02:52;;;;;;;;;;;;;;;11.11;80.68;101969.75;5038464;28;19916;-91